Time;durP1;ratioP1;P1;durP2;ratioP2;P2;SDS_P1;SDS_P2;PMS_P1;PMS_P2;Temp;Humidity;BMP_temperature;BMP_pressure;BME280_temperature;BME280_humidity;BME280_pressure;Samples;Min_cycle;Max_cycle;Signal;HPM_P1;HPM_P2
2023/07/12 00:00:52;;;;;;;15.20;8.18;;;;;;;;;;5079410;28;20095;-78
2023/07/12 00:03:19;;;;;;;14.18;7.60;;;;;;;;;;5078301;28;20451;-79
2023/07/12 00:05:47;;;;;;;15.05;7.75;;;;;;;;;;5078593;28;20048;-78
2023/07/12 00:08:23;;;;;;;16.15;8.50;;;;;;;;;;5079659;28;20041;-80
2023/07/12 00:10:51;;;;;;;13.15;8.00;;;;;;;;;;5078541;28;20589;-79
2023/07/12 00:13:18;;;;;;;14.57;8.43;;;;;;;;;;5059825;28;20071;-77
2023/07/12 00:15:45;;;;;;;14.93;8.02;;;;;;;;;;5079202;28;20044;-79
2023/07/12 00:18:13;;;;;;;12.52;7.30;;;;;;;;;;5077979;28;20044;-78
2023/07/12 00:20:40;;;;;;;14.85;8.02;;;;;;;;;;5078563;28;20040;-80
2023/07/12 00:23:09;;;;;;;13.88;7.78;;;;;;;;;;5079373;28;20052;-79
2023/07/12 00:25:35;;;;;;;14.30;7.72;;;;;;;;;;5080172;28;20055;-79
2023/07/12 00:28:02;;;;;;;12.95;7.80;;;;;;;;;;5076821;28;20067;-78
2023/07/12 00:30:28;;;;;;;13.40;8.30;;;;;;;;;;5079562;28;20052;-79
2023/07/12 00:33:03;;;;;;;12.52;7.68;;;;;;;;;;5078519;28;20036;-78
2023/07/12 00:35:31;;;;;;;12.27;7.28;;;;;;;;;;5084770;28;20041;-79
2023/07/12 00:38:00;;;;;;;14.85;7.53;;;;;;;;;;5080397;28;20059;-78
2023/07/12 00:40:45;;;;;;;13.57;7.70;;;;;;;;;;5063813;28;20095;-80
2023/07/12 00:43:25;;;;;;;13.98;8.15;;;;;;;;;;5065261;28;20044;-80
2023/07/12 00:45:53;;;;;;;14.18;7.45;;;;;;;;;;5060562;28;20655;-79
2023/07/12 00:48:19;;;;;;;10.55;6.93;;;;;;;;;;5043311;28;20049;-80
2023/07/12 00:50:47;;;;;;;11.88;6.65;;;;;;;;;;5059884;28;20049;-77
2023/07/12 00:53:19;;;;;;;14.18;6.53;;;;;;;;;;5059881;28;20059;-80
2023/07/12 00:56:00;;;;;;;11.65;6.53;;;;;;;;;;5057102;28;20128;-77
2023/07/12 00:58:30;;;;;;;12.93;6.78;;;;;;;;;;5058012;28;20064;-79
2023/07/12 01:00:58;;;;;;;12.55;6.63;;;;;;;;;;5057284;28;20041;-80
2023/07/12 01:03:26;;;;;;;11.98;6.55;;;;;;;;;;5057394;28;20520;-80
2023/07/12 01:05:53;;;;;;;13.02;6.50;;;;;;;;;;5056184;28;20195;-80
2023/07/12 01:08:20;;;;;;;9.98;5.07;;;;;;;;;;5056858;28;20116;-80
2023/07/12 01:10:47;;;;;;;11.07;5.00;;;;;;;;;;5058430;28;20049;-80
2023/07/12 01:13:13;;;;;;;11.07;5.00;;;;;;;;;;5058939;28;20052;-80
2023/07/12 01:15:40;;;;;;;10.27;4.47;;;;;;;;;;5059998;28;20075;-80
2023/07/12 01:18:08;;;;;;;10.35;4.25;;;;;;;;;;5061551;28;20075;-78
2023/07/12 01:20:36;;;;;;;8.45;4.70;;;;;;;;;;5067403;28;20255;-77
2023/07/12 01:23:03;;;;;;;10.15;4.65;;;;;;;;;;5055412;28;20307;-79
2023/07/12 01:25:40;;;;;;;9.48;4.47;;;;;;;;;;5057069;28;20041;-78
2023/07/12 01:28:07;;;;;;;11.75;4.40;;;;;;;;;;5056342;28;20087;-79
2023/07/12 01:30:36;;;;;;;11.27;4.40;;;;;;;;;;5055022;28;20043;-78
2023/07/12 01:33:03;;;;;;;7.43;3.95;;;;;;;;;;5057677;28;20041;-79
2023/07/12 01:35:30;;;;;;;12.30;4.15;;;;;;;;;;5056214;28;20041;-77
2023/07/12 01:37:58;;;;;;;8.63;4.05;;;;;;;;;;5059137;28;20044;-78
2023/07/12 01:40:25;;;;;;;6.47;4.00;;;;;;;;;;5076382;28;20051;-79
2023/07/12 01:42:52;;;;;;;7.03;3.53;;;;;;;;;;5076311;28;20600;-80
2023/07/12 01:45:18;;;;;;;5.07;2.75;;;;;;;;;;5076453;28;20094;-80
2023/07/12 01:47:47;;;;;;;7.97;3.00;;;;;;;;;;5076590;28;20470;-80
2023/07/12 01:50:14;;;;;;;5.78;2.30;;;;;;;;;;5075954;28;20041;-79
2023/07/12 01:52:40;;;;;;;6.90;2.83;;;;;;;;;;5072438;28;20082;-80
2023/07/12 01:55:07;;;;;;;7.88;2.65;;;;;;;;;;5073371;28;20045;-81
2023/07/12 01:57:34;;;;;;;13.98;2.60;;;;;;;;;;5074428;28;20052;-81
2023/07/12 02:00:00;;;;;;;10.63;2.40;;;;;;;;;;5076576;28;20052;-80
2023/07/12 02:02:41;;;;;;;4.55;2.80;;;;;;;;;;5079161;28;20052;-80
2023/07/12 02:05:08;;;;;;;6.50;3.15;;;;;;;;;;5060224;28;20064;-81
2023/07/12 02:07:35;;;;;;;6.35;2.75;;;;;;;;;;5067166;28;20048;-80
2023/07/12 02:10:15;;;;;;;7.68;2.30;;;;;;;;;;5077413;28;20465;-79
2023/07/12 02:12:42;;;;;;;8.25;2.63;;;;;;;;;;5077353;28;20079;-80
2023/07/12 02:15:09;;;;;;;4.50;2.10;;;;;;;;;;5077802;28;20147;-81
2023/07/12 02:17:39;;;;;;;4.05;2.15;;;;;;;;;;5076933;28;20045;-80
2023/07/12 02:20:08;;;;;;;20.15;2.38;;;;;;;;;;5077688;28;20147;-80
2023/07/12 02:22:35;;;;;;;6.15;2.00;;;;;;;;;;5079219;28;20079;-80
2023/07/12 02:25:02;;;;;;;3.50;1.80;;;;;;;;;;5079300;28;20174;-81
2023/07/12 02:27:29;;;;;;;2.72;1.70;;;;;;;;;;5077802;28;20045;-81
2023/07/12 02:29:56;;;;;;;5.43;1.55;;;;;;;;;;5078286;28;20472;-80
2023/07/12 02:32:25;;;;;;;3.53;1.80;;;;;;;;;;5078043;28;20052;-79
2023/07/12 02:34:52;;;;;;;7.93;1.85;;;;;;;;;;5079788;28;20052;-80
2023/07/12 02:37:19;;;;;;;5.55;1.88;;;;;;;;;;5079214;28;20271;-81
2023/07/12 02:39:45;;;;;;;9.68;1.98;;;;;;;;;;5057465;28;20071;-80
2023/07/12 02:42:12;;;;;;;2.28;1.50;;;;;;;;;;5060081;28;20041;-80
2023/07/12 02:44:41;;;;;;;4.18;1.60;;;;;;;;;;5059356;28;20045;-79
2023/07/12 02:47:09;;;;;;;4.85;1.88;;;;;;;;;;5059713;28;20049;-81
2023/07/12 02:49:37;;;;;;;3.33;1.63;;;;;;;;;;5061454;28;20056;-81
2023/07/12 02:52:04;;;;;;;6.40;2.13;;;;;;;;;;5062188;28;20128;-82
2023/07/12 02:54:31;;;;;;;2.17;1.30;;;;;;;;;;5060908;28;20188;-81
2023/07/12 02:56:58;;;;;;;4.75;1.50;;;;;;;;;;5060707;28;20343;-80
2023/07/12 02:59:24;;;;;;;6.70;1.42;;;;;;;;;;5059451;28;20120;-81
2023/07/12 03:01:51;;;;;;;3.70;1.30;;;;;;;;;;5059447;28;20785;-81
2023/07/12 03:04:18;;;;;;;2.40;1.40;;;;;;;;;;5060743;28;20060;-80
2023/07/12 03:06:45;;;;;;;3.25;1.40;;;;;;;;;;5060222;28;20068;-80
2023/07/12 03:09:11;;;;;;;5.13;1.42;;;;;;;;;;5059365;28;20414;-80
2023/07/12 03:11:38;;;;;;;2.25;1.38;;;;;;;;;;5073176;28;20464;-80
2023/07/12 03:14:06;;;;;;;4.20;1.20;;;;;;;;;;5063437;28;20102;-81
2023/07/12 03:16:32;;;;;;;4.40;1.60;;;;;;;;;;5065365;28;20064;-78
2023/07/12 03:19:00;;;;;;;3.00;1.33;;;;;;;;;;5064674;28;20067;-80
2023/07/12 03:21:26;;;;;;;2.22;1.13;;;;;;;;;;5057808;28;20047;-79
2023/07/12 03:23:53;;;;;;;2.53;1.30;;;;;;;;;;5057665;28;20049;-79
2023/07/12 03:26:20;;;;;;;5.60;1.58;;;;;;;;;;5058930;28;20135;-78
2023/07/12 03:28:46;;;;;;;3.17;1.38;;;;;;;;;;5057725;28;20475;-80
2023/07/12 03:31:15;;;;;;;2.90;1.70;;;;;;;;;;5058055;28;20037;-80
2023/07/12 03:33:43;;;;;;;4.80;1.40;;;;;;;;;;5058934;28;20045;-78
2023/07/12 03:36:09;;;;;;;2.35;1.10;;;;;;;;;;5056226;28;20060;-79
2023/07/12 03:38:36;;;;;;;3.28;1.48;;;;;;;;;;5069580;28;20047;-81
2023/07/12 03:41:04;;;;;;;2.45;1.35;;;;;;;;;;5079920;28;20495;-80
2023/07/12 03:43:32;;;;;;;3.42;1.20;;;;;;;;;;5077655;28;20049;-81
2023/07/12 03:45:59;;;;;;;3.00;1.60;;;;;;;;;;5080140;28;20036;-78
2023/07/12 03:48:26;;;;;;;3.00;1.30;;;;;;;;;;5080061;28;20036;-80
2023/07/12 03:50:55;;;;;;;2.58;1.40;;;;;;;;;;5079474;28;20037;-80
2023/07/12 03:53:22;;;;;;;3.10;1.52;;;;;;;;;;5077390;28;20072;-77
2023/07/12 03:55:49;;;;;;;2.22;1.60;;;;;;;;;;5078178;28;20124;-79
2023/07/12 03:58:20;;;;;;;3.88;1.40;;;;;;;;;;5078576;28;20070;-78
2023/07/12 04:00:48;;;;;;;2.40;1.30;;;;;;;;;;5079320;28;20037;-78
2023/07/12 04:03:15;;;;;;;3.13;1.40;;;;;;;;;;5078907;28;20041;-79
2023/07/12 04:05:42;;;;;;;2.45;1.25;;;;;;;;;;5077214;28;20128;-78
2023/07/12 04:08:11;;;;;;;3.08;1.50;;;;;;;;;;5076921;28;20040;-80
2023/07/12 04:10:38;;;;;;;3.92;1.60;;;;;;;;;;5072809;28;20052;-80
2023/07/12 04:13:04;;;;;;;2.00;1.40;;;;;;;;;;5072191;28;20049;-78
2023/07/12 04:15:31;;;;;;;6.18;1.77;;;;;;;;;;5076426;28;20086;-79
2023/07/12 04:17:58;;;;;;;3.03;1.30;;;;;;;;;;5079063;28;20052;-79
2023/07/12 04:20:25;;;;;;;3.20;1.85;;;;;;;;;;5077547;28;20044;-80
2023/07/12 04:22:52;;;;;;;2.60;1.35;;;;;;;;;;5077621;28;20543;-79
2023/07/12 04:25:20;;;;;;;2.58;1.40;;;;;;;;;;5077833;28;20044;-78
2023/07/12 04:27:47;;;;;;;2.35;1.00;;;;;;;;;;5077818;28;20032;-78
2023/07/12 04:30:19;;;;;;;2.55;1.00;;;;;;;;;;5075394;28;20047;-79
2023/07/12 04:33:06;;;;;;;2.03;1.15;;;;;;;;;;5071568;28;20070;-77
2023/07/12 04:35:39;;;;;;;2.80;1.27;;;;;;;;;;5070057;28;20498;-78
2023/07/12 04:38:06;;;;;;;4.63;1.10;;;;;;;;;;5066454;28;20124;-78
2023/07/12 04:40:33;;;;;;;4.35;1.33;;;;;;;;;;5052601;28;20068;-78
2023/07/12 04:42:59;;;;;;;2.85;1.02;;;;;;;;;;5051034;28;20426;-78
2023/07/12 04:45:26;;;;;;;3.42;1.20;;;;;;;;;;5054487;28;20044;-80
2023/07/12 04:47:53;;;;;;;2.28;1.00;;;;;;;;;;5054591;28;20041;-78
2023/07/12 04:50:37;;;;;;;3.42;1.00;;;;;;;;;;5053468;28;20049;-79
2023/07/12 04:53:04;;;;;;;2.33;0.95;;;;;;;;;;5052515;28;22283;-78
2023/07/12 04:55:31;;;;;;;2.78;1.20;;;;;;;;;;5054500;28;20112;-78
2023/07/12 04:57:57;;;;;;;1.40;1.00;;;;;;;;;;5052833;28;20049;-78
2023/07/12 05:00:24;;;;;;;2.20;1.00;;;;;;;;;;5053791;28;20072;-78
2023/07/12 05:02:51;;;;;;;1.88;1.00;;;;;;;;;;5056075;28;20132;-78
2023/07/12 05:05:20;;;;;;;4.32;1.25;;;;;;;;;;5053304;28;20113;-78
2023/07/12 05:07:48;;;;;;;1.40;0.95;;;;;;;;;;5058877;28;20113;-80
2023/07/12 05:10:15;;;;;;;3.28;1.27;;;;;;;;;;5063459;28;20113;-80
2023/07/12 05:12:42;;;;;;;12.23;1.30;;;;;;;;;;5062313;28;20057;-80
2023/07/12 05:15:09;;;;;;;2.13;1.20;;;;;;;;;;5068126;28;20043;-79
2023/07/12 05:17:35;;;;;;;4.18;1.40;;;;;;;;;;5068623;28;20040;-80
2023/07/12 05:20:04;;;;;;;3.42;1.20;;;;;;;;;;5060645;28;20055;-81
2023/07/12 05:22:31;;;;;;;1.85;1.08;;;;;;;;;;5058999;28;20076;-82
2023/07/12 05:24:58;;;;;;;2.63;1.25;;;;;;;;;;5058959;28;20041;-80
2023/07/12 05:27:25;;;;;;;1.88;1.00;;;;;;;;;;5058064;28;20049;-80
2023/07/12 05:29:52;;;;;;;2.42;1.02;;;;;;;;;;5060550;28;20114;-80
2023/07/12 05:32:19;;;;;;;5.75;1.10;;;;;;;;;;5058075;28;20523;-80
2023/07/12 05:34:45;;;;;;;1.83;1.00;;;;;;;;;;5059730;28;20049;-80
2023/07/12 05:37:12;;;;;;;1.85;1.10;;;;;;;;;;5059535;28;20045;-81
2023/07/12 05:39:40;;;;;;;3.53;0.85;;;;;;;;;;5080722;28;20065;-80
2023/07/12 05:42:07;;;;;;;2.55;0.90;;;;;;;;;;5082112;28;20090;-80
2023/07/12 05:44:33;;;;;;;2.10;1.15;;;;;;;;;;5082032;28;20052;-78
2023/07/12 05:47:00;;;;;;;1.80;1.00;;;;;;;;;;5082039;28;20048;-79
2023/07/12 05:49:28;;;;;;;2.47;1.30;;;;;;;;;;5080209;28;20127;-81
2023/07/12 05:51:54;;;;;;;5.93;1.15;;;;;;;;;;5080039;28;20036;-77
2023/07/12 05:54:21;;;;;;;2.15;1.30;;;;;;;;;;5079894;28;20060;-79
2023/07/12 05:56:48;;;;;;;3.17;1.33;;;;;;;;;;5080276;28;20071;-80
2023/07/12 05:59:14;;;;;;;4.13;1.20;;;;;;;;;;5078839;28;20561;-80
2023/07/12 06:01:41;;;;;;;2.92;1.30;;;;;;;;;;5079017;28;20062;-78
2023/07/12 06:04:10;;;;;;;2.97;1.48;;;;;;;;;;5080621;28;20047;-80
2023/07/12 06:06:38;;;;;;;1.95;1.20;;;;;;;;;;5078318;28;20045;-82
2023/07/12 06:09:05;;;;;;;2.58;1.40;;;;;;;;;;5080317;28;20162;-79
2023/07/12 06:11:32;;;;;;;2.80;1.40;;;;;;;;;;5075696;28;20418;-79
2023/07/12 06:13:59;;;;;;;3.70;1.30;;;;;;;;;;5076877;28;20044;-80
2023/07/12 06:16:27;;;;;;;3.35;1.25;;;;;;;;;;5076254;28;20120;-80
2023/07/12 06:18:54;;;;;;;2.70;1.40;;;;;;;;;;5076394;28;20044;-80
2023/07/12 06:21:20;;;;;;;2.38;1.20;;;;;;;;;;5079526;28;20078;-80
2023/07/12 06:23:48;;;;;;;3.88;1.45;;;;;;;;;;5077997;28;20055;-79
2023/07/12 06:26:15;;;;;;;3.25;1.30;;;;;;;;;;5079115;28;20044;-81
2023/07/12 06:28:41;;;;;;;4.13;1.30;;;;;;;;;;5080722;28;20080;-78
2023/07/12 06:31:08;;;;;;;2.25;1.25;;;;;;;;;;5080802;28;20104;-80
2023/07/12 06:33:38;;;;;;;2.00;1.30;;;;;;;;;;5081628;28;20044;-78
2023/07/12 06:36:05;;;;;;;2.58;0.93;;;;;;;;;;5081798;28;20112;-79
2023/07/12 06:38:32;;;;;;;1.40;0.90;;;;;;;;;;5071773;28;20477;-80
2023/07/12 06:40:59;;;;;;;1.23;0.93;;;;;;;;;;5062912;28;20044;-78
2023/07/12 06:43:25;;;;;;;3.08;1.40;;;;;;;;;;5063089;28;20053;-80
2023/07/12 06:45:52;;;;;;;1.75;1.10;;;;;;;;;;5062380;28;20056;-79
2023/07/12 06:48:19;;;;;;;2.28;1.10;;;;;;;;;;5062668;28;20048;-80
2023/07/12 06:50:46;;;;;;;3.22;1.08;;;;;;;;;;5062442;28;20562;-79
2023/07/12 06:53:13;;;;;;;1.63;0.90;;;;;;;;;;5063671;28;20053;-79
2023/07/12 06:55:43;;;;;;;1.98;1.10;;;;;;;;;;5062929;28;20060;-81
2023/07/12 06:58:10;;;;;;;5.22;1.48;;;;;;;;;;5061549;28;20056;-82
2023/07/12 07:00:40;;;;;;;1.63;1.10;;;;;;;;;;5060461;28;20041;-80
2023/07/12 07:03:09;;;;;;;3.83;1.20;;;;;;;;;;5061731;28;20041;-81
2023/07/12 07:05:39;;;;;;;1.52;1.10;;;;;;;;;;5062019;28;20057;-77
2023/07/12 07:08:06;;;;;;;6.90;1.20;;;;;;;;;;5058559;28;20055;-80
2023/07/12 07:10:33;;;;;;;1.92;1.00;;;;;;;;;;5062301;28;20041;-81
2023/07/12 07:13:00;;;;;;;5.22;1.30;;;;;;;;;;5063748;28;20056;-81
2023/07/12 07:15:27;;;;;;;1.85;1.10;;;;;;;;;;5068946;28;20048;-79
2023/07/12 07:17:54;;;;;;;2.33;1.30;;;;;;;;;;5063950;28;20053;-79
2023/07/12 07:20:22;;;;;;;2.58;1.38;;;;;;;;;;5062513;28;20044;-81
2023/07/12 07:22:48;;;;;;;2.75;1.25;;;;;;;;;;5062777;28;20063;-82
2023/07/12 07:25:15;;;;;;;5.55;1.20;;;;;;;;;;5061628;28;20048;-82
2023/07/12 07:27:47;;;;;;;1.88;1.20;;;;;;;;;;5061252;28;20060;-78
2023/07/12 07:30:14;;;;;;;3.28;1.20;;;;;;;;;;5061601;28;20049;-80
2023/07/12 07:32:41;;;;;;;3.47;1.30;;;;;;;;;;5062041;28;20053;-82
2023/07/12 07:35:13;;;;;;;4.20;1.40;;;;;;;;;;5062351;28;20235;-81
2023/07/12 07:37:40;;;;;;;2.22;1.10;;;;;;;;;;5062407;28;20143;-80
2023/07/12 07:40:07;;;;;;;3.35;1.30;;;;;;;;;;5070999;28;20116;-80
2023/07/12 07:42:36;;;;;;;2.50;1.23;;;;;;;;;;5060226;28;20045;-81
2023/07/12 07:45:03;;;;;;;2.25;1.30;;;;;;;;;;5059486;28;20052;-80
2023/07/12 07:47:30;;;;;;;2.90;1.58;;;;;;;;;;5061094;28;20037;-78
2023/07/12 07:49:57;;;;;;;1.95;1.27;;;;;;;;;;5060822;28;20044;-80
2023/07/12 07:52:24;;;;;;;2.35;1.20;;;;;;;;;;5059000;28;20052;-81
2023/07/12 07:54:50;;;;;;;2.22;1.33;;;;;;;;;;5059685;28;20055;-79
2023/07/12 07:57:17;;;;;;;3.47;1.50;;;;;;;;;;5058118;28;20064;-80
2023/07/12 07:59:44;;;;;;;4.95;1.50;;;;;;;;;;5059068;28;20526;-80
2023/07/12 08:02:13;;;;;;;5.05;1.50;;;;;;;;;;5061177;28;20127;-81
2023/07/12 08:04:40;;;;;;;3.50;1.55;;;;;;;;;;5062235;28;20098;-81
2023/07/12 08:07:07;;;;;;;2.63;1.60;;;;;;;;;;5060275;28;20044;-80
2023/07/12 08:09:35;;;;;;;6.63;1.67;;;;;;;;;;5053282;28;20040;-81
2023/07/12 08:12:02;;;;;;;3.42;1.52;;;;;;;;;;5065611;28;20047;-80
2023/07/12 08:14:29;;;;;;;5.47;1.60;;;;;;;;;;5063294;28;20079;-79
2023/07/12 08:16:56;;;;;;;5.57;1.67;;;;;;;;;;5061679;28;20033;-80
2023/07/12 08:19:23;;;;;;;2.75;1.60;;;;;;;;;;5061833;28;20064;-82
2023/07/12 08:21:50;;;;;;;3.65;1.80;;;;;;;;;;5060443;28;20052;-80
2023/07/12 08:24:16;;;;;;;4.97;1.60;;;;;;;;;;5059589;28;20036;-80
2023/07/12 08:26:46;;;;;;;2.45;1.48;;;;;;;;;;5059808;28;20055;-79
2023/07/12 08:29:31;;;;;;;3.55;1.90;;;;;;;;;;5060865;28;20051;-80
2023/07/12 08:31:58;;;;;;;7.13;1.70;;;;;;;;;;5061227;28;20049;-79
2023/07/12 08:34:25;;;;;;;2.85;1.80;;;;;;;;;;5060105;28;20048;-82
2023/07/12 08:36:51;;;;;;;2.83;1.73;;;;;;;;;;5061174;28;20465;-80
2023/07/12 08:39:18;;;;;;;4.45;1.70;;;;;;;;;;5075652;28;20406;-81
2023/07/12 08:41:44;;;;;;;4.38;1.65;;;;;;;;;;5079143;28;20048;-80
2023/07/12 08:44:13;;;;;;;3.30;1.77;;;;;;;;;;5078430;28;20418;-79
2023/07/12 08:46:43;;;;;;;4.78;2.00;;;;;;;;;;5074648;28;20091;-78
2023/07/12 08:49:10;;;;;;;4.28;1.90;;;;;;;;;;5079618;28;20051;-80
2023/07/12 08:51:39;;;;;;;2.60;1.90;;;;;;;;;;5079227;28;20055;-79
2023/07/12 08:54:19;;;;;;;4.70;2.10;;;;;;;;;;5077628;28;20044;-81
2023/07/12 08:56:45;;;;;;;5.35;2.35;;;;;;;;;;5078885;28;20127;-81
2023/07/12 08:59:13;;;;;;;6.20;2.00;;;;;;;;;;5076623;28;20549;-81
2023/07/12 09:01:49;;;;;;;5.15;2.10;;;;;;;;;;5078653;28;20045;-80
2023/07/12 09:04:26;;;;;;;7.20;2.42;;;;;;;;;;5079122;28;20186;-81
2023/07/12 09:06:56;;;;;;;3.45;2.00;;;;;;;;;;5083146;28;20052;-81
2023/07/12 09:09:23;;;;;;;4.03;2.50;;;;;;;;;;5078399;28;20052;-80
2023/07/12 09:11:50;;;;;;;5.55;2.40;;;;;;;;;;5081100;28;20051;-80
2023/07/12 09:14:18;;;;;;;4.32;2.20;;;;;;;;;;5081941;28;20096;-79
2023/07/12 09:16:49;;;;;;;4.15;2.38;;;;;;;;;;5082507;28;20136;-81
2023/07/12 09:19:23;;;;;;;4.30;2.30;;;;;;;;;;5068150;28;20041;-81
2023/07/12 09:21:53;;;;;;;6.13;2.47;;;;;;;;;;5076506;28;20040;-80
2023/07/12 09:24:27;;;;;;;5.05;2.63;;;;;;;;;;5068501;28;20052;-82
2023/07/12 09:27:05;;;;;;;7.03;2.90;;;;;;;;;;5077816;28;20044;-79
2023/07/12 09:29:35;;;;;;;5.47;2.65;;;;;;;;;;5078022;28;20101;-80
2023/07/12 09:32:02;;;;;;;7.28;2.47;;;;;;;;;;5080025;28;20066;-80
2023/07/12 09:34:34;;;;;;;7.30;2.80;;;;;;;;;;5079647;28;20045;-80
2023/07/12 09:37:02;;;;;;;8.13;2.25;;;;;;;;;;5078888;28;20040;-80
2023/07/12 09:39:29;;;;;;;4.90;2.70;;;;;;;;;;5079886;28;20064;-81
2023/07/12 09:41:57;;;;;;;7.45;2.95;;;;;;;;;;5079085;28;20071;-79
2023/07/12 09:44:25;;;;;;;7.25;2.92;;;;;;;;;;5076477;28;20173;-80
2023/07/12 09:46:57;;;;;;;5.28;3.00;;;;;;;;;;5079398;28;20051;-80
2023/07/12 09:49:27;;;;;;;4.60;2.70;;;;;;;;;;5079228;28;20127;-78
2023/07/12 09:51:57;;;;;;;7.53;2.65;;;;;;;;;;5079131;28;20078;-80
2023/07/12 09:54:28;;;;;;;9.40;3.00;;;;;;;;;;5063206;28;20052;-79
2023/07/12 09:57:15;;;;;;;6.10;2.70;;;;;;;;;;5084022;28;20059;-79
2023/07/12 09:59:51;;;;;;;5.63;2.63;;;;;;;;;;5082194;28;20064;-77
2023/07/12 10:02:24;;;;;;;4.40;2.63;;;;;;;;;;5083379;28;20060;-80
2023/07/12 10:04:55;;;;;;;4.68;2.92;;;;;;;;;;5082799;28;20048;-81
2023/07/12 10:07:28;;;;;;;4.97;2.70;;;;;;;;;;5082978;28;20060;-79
2023/07/12 10:09:55;;;;;;;4.78;3.05;;;;;;;;;;5083437;28;20052;-80
2023/07/12 10:12:24;;;;;;;4.40;2.97;;;;;;;;;;5083408;28;20350;-80
2023/07/12 10:14:52;;;;;;;5.97;2.97;;;;;;;;;;5083224;28;20547;-80
2023/07/12 10:17:24;;;;;;;6.88;2.85;;;;;;;;;;5084884;28;20048;-82
2023/07/12 10:19:53;;;;;;;6.03;2.75;;;;;;;;;;5084729;28;20056;-81
2023/07/12 10:22:24;;;;;;;4.60;2.78;;;;;;;;;;5084304;28;20076;-80
2023/07/12 10:24:51;;;;;;;5.63;3.03;;;;;;;;;;5063846;28;20290;-80
2023/07/12 10:27:23;;;;;;;4.88;2.75;;;;;;;;;;5082751;28;20060;-80
2023/07/12 10:29:53;;;;;;;6.05;2.92;;;;;;;;;;5081134;28;20111;-80
2023/07/12 10:32:22;;;;;;;6.93;3.10;;;;;;;;;;5080543;28;20135;-80
2023/07/12 10:35:00;;;;;;;8.27;3.60;;;;;;;;;;5081597;28;20036;-80
2023/07/12 10:37:31;;;;;;;7.22;3.55;;;;;;;;;;5079087;28;20129;-78
2023/07/12 10:39:58;;;;;;;7.10;4.28;;;;;;;;;;5058557;28;20049;-80
2023/07/12 10:42:28;;;;;;;7.35;4.15;;;;;;;;;;5061069;28;20130;-78
2023/07/12 10:44:56;;;;;;;9.20;4.22;;;;;;;;;;5060474;28;20415;-81
2023/07/12 10:47:28;;;;;;;7.60;4.57;;;;;;;;;;5060415;28;20061;-79
2023/07/12 10:53:57;;;;;;;13.30;5.50;;;;;;;;;;5059575;28;20058;-83
2023/07/12 10:56:25;;;;;;;10.98;4.70;;;;;;;;;;5070121;28;20048;-81
2023/07/12 10:58:58;;;;;;;10.32;4.55;;;;;;;;;;5080171;28;20051;-81
2023/07/12 11:01:38;;;;;;;8.55;4.28;;;;;;;;;;5079595;28;20048;-79
2023/07/12 11:04:25;;;;;;;8.20;3.72;;;;;;;;;;5081096;28;20040;-81
2023/07/12 11:07:00;;;;;;;5.72;3.35;;;;;;;;;;5079969;28;20045;-81
2023/07/12 11:09:42;;;;;;;11.00;4.05;;;;;;;;;;5079179;28;20048;-79
2023/07/12 11:12:18;;;;;;;7.37;4.00;;;;;;;;;;5080986;28;20079;-80
2023/07/12 11:14:47;;;;;;;8.45;3.67;;;;;;;;;;5080128;28;20041;-78
2023/07/12 11:17:16;;;;;;;5.82;3.80;;;;;;;;;;5080337;28;20056;-81
2023/07/12 11:19:45;;;;;;;5.90;3.80;;;;;;;;;;5079570;28;20044;-82
2023/07/12 11:22:12;;;;;;;5.78;3.10;;;;;;;;;;5080881;28;20067;-79
2023/07/12 11:25:03;;;;;;;4.85;3.00;;;;;;;;;;5061827;28;20048;-81
2023/07/12 11:27:41;;;;;;;5.00;2.80;;;;;;;;;;5079747;28;20061;-82
2023/07/12 11:30:13;;;;;;;5.60;2.65;;;;;;;;;;5079591;28;20048;-79
2023/07/12 11:32:40;;;;;;;4.80;2.70;;;;;;;;;;5081474;28;20033;-79
2023/07/12 11:35:13;;;;;;;7.07;2.60;;;;;;;;;;5080335;28;20514;-77
2023/07/12 11:37:43;;;;;;;5.20;2.30;;;;;;;;;;5076151;28;20329;-80
2023/07/12 11:40:21;;;;;;;3.65;2.15;;;;;;;;;;5060970;28;20164;-80
2023/07/12 11:42:48;;;;;;;6.60;2.30;;;;;;;;;;5061710;28;20045;-81
2023/07/12 11:45:17;;;;;;;3.55;2.20;;;;;;;;;;5059468;28;20041;-78
2023/07/12 11:47:45;;;;;;;2.92;1.92;;;;;;;;;;5057651;28;20260;-80
2023/07/12 11:50:23;;;;;;;3.42;1.80;;;;;;;;;;5059079;28;20064;-79
2023/07/12 11:52:51;;;;;;;4.20;1.98;;;;;;;;;;5059060;28;20114;-82
2023/07/12 11:55:19;;;;;;;3.88;1.80;;;;;;;;;;5057957;28;20127;-80
2023/07/12 11:57:47;;;;;;;1.70;1.52;;;;;;;;;;5059381;28;20057;-80
2023/07/12 12:00:15;;;;;;;5.10;2.22;;;;;;;;;;5058821;28;20043;-80
2023/07/12 12:02:45;;;;;;;4.20;2.17;;;;;;;;;;5060469;28;20064;-77
2023/07/12 12:05:20;;;;;;;6.53;1.85;;;;;;;;;;5060950;28;20072;-78
2023/07/12 12:07:48;;;;;;;3.17;1.77;;;;;;;;;;5058430;28;20051;-81
2023/07/12 12:10:38;;;;;;;3.70;2.33;;;;;;;;;;5059934;28;20453;-81
2023/07/12 12:13:20;;;;;;;3.28;1.92;;;;;;;;;;5052769;28;20051;-81
2023/07/12 12:15:56;;;;;;;3.92;2.05;;;;;;;;;;5057494;28;20450;-80
2023/07/12 12:18:23;;;;;;;3.67;2.10;;;;;;;;;;5059960;28;20152;-79
2023/07/12 12:20:59;;;;;;;2.75;1.77;;;;;;;;;;5059036;28;20052;-80
2023/07/12 12:23:28;;;;;;;6.40;2.00;;;;;;;;;;5058755;28;20053;-80
2023/07/12 12:25:57;;;;;;;2.70;1.67;;;;;;;;;;5058207;28;20055;-79
2023/07/12 12:28:25;;;;;;;2.47;1.65;;;;;;;;;;5058976;28;20098;-79
2023/07/12 12:31:18;;;;;;;2.28;1.70;;;;;;;;;;5059089;28;20048;-79
2023/07/12 12:33:47;;;;;;;3.47;1.75;;;;;;;;;;5057397;28;20068;-79
2023/07/12 12:36:19;;;;;;;3.83;1.60;;;;;;;;;;5058741;28;20061;-80
2023/07/12 12:38:54;;;;;;;2.65;1.70;;;;;;;;;;5068641;28;20043;-80
2023/07/12 12:41:21;;;;;;;2.60;1.90;;;;;;;;;;5077260;28;20049;-78
2023/07/12 12:43:54;;;;;;;4.20;1.77;;;;;;;;;;5078251;28;20493;-81
2023/07/12 12:46:21;;;;;;;3.90;1.70;;;;;;;;;;5077445;28;20048;-79
2023/07/12 12:48:51;;;;;;;5.25;1.80;;;;;;;;;;5077622;28;20060;-80
2023/07/12 12:51:22;;;;;;;3.00;1.67;;;;;;;;;;5077141;28;20072;-78
2023/07/12 12:53:51;;;;;;;4.30;1.55;;;;;;;;;;5077229;28;20063;-79
2023/07/12 12:56:22;;;;;;;2.03;1.40;;;;;;;;;;5076611;28;20521;-80
2023/07/12 12:58:51;;;;;;;3.88;1.50;;;;;;;;;;5077177;28;20173;-78
2023/07/12 13:01:21;;;;;;;5.63;1.88;;;;;;;;;;5078040;28;20048;-79
2023/07/12 13:03:51;;;;;;;5.50;1.70;;;;;;;;;;5079230;28;20127;-79
2023/07/12 13:06:40;;;;;;;1.80;1.30;;;;;;;;;;5076870;28;20053;-79
2023/07/12 13:09:21;;;;;;;2.53;1.50;;;;;;;;;;5078726;28;20044;-79
2023/07/12 13:11:50;;;;;;;2.65;1.40;;;;;;;;;;5079523;28;20044;-79
2023/07/12 13:14:37;;;;;;;4.97;1.90;;;;;;;;;;5079323;28;20072;-79
2023/07/12 13:17:12;;;;;;;3.53;1.58;;;;;;;;;;5076350;28;20209;-78
2023/07/12 13:19:43;;;;;;;3.05;1.60;;;;;;;;;;5078930;28;20041;-80
2023/07/12 13:22:11;;;;;;;3.50;1.60;;;;;;;;;;5081746;28;20048;-80
2023/07/12 13:24:38;;;;;;;5.05;1.30;;;;;;;;;;5080627;28;20037;-79
2023/07/12 13:27:19;;;;;;;3.03;1.55;;;;;;;;;;5079427;28;20108;-78
2023/07/12 13:29:45;;;;;;;2.85;1.42;;;;;;;;;;5077577;28;20044;-80
2023/07/12 13:32:12;;;;;;;2.63;1.50;;;;;;;;;;5080312;28;20037;-78
2023/07/12 13:34:39;;;;;;;2.28;1.50;;;;;;;;;;5081309;28;20067;-80
2023/07/12 13:37:17;;;;;;;5.18;1.63;;;;;;;;;;5079927;28;20036;-79
2023/07/12 13:39:54;;;;;;;3.83;1.50;;;;;;;;;;5059723;28;20113;-79
2023/07/12 13:42:21;;;;;;;3.38;1.50;;;;;;;;;;5057633;28;20064;-79
2023/07/12 13:44:51;;;;;;;2.53;1.40;;;;;;;;;;5057397;28;20128;-80
2023/07/12 13:47:21;;;;;;;4.57;1.50;;;;;;;;;;5058972;28;20041;-79
2023/07/12 13:49:50;;;;;;;2.55;1.60;;;;;;;;;;5058687;28;20045;-78
2023/07/12 13:52:18;;;;;;;2.30;1.58;;;;;;;;;;5059127;28;20041;-79
2023/07/12 13:54:46;;;;;;;2.42;1.52;;;;;;;;;;5057147;28;20163;-78
2023/07/12 13:57:14;;;;;;;3.65;1.42;;;;;;;;;;5057438;28;20041;-80
2023/07/12 13:59:41;;;;;;;3.25;1.50;;;;;;;;;;5060346;28;20502;-79
2023/07/12 14:02:17;;;;;;;2.47;1.58;;;;;;;;;;5061592;28;20045;-80
2023/07/12 14:04:49;;;;;;;1.55;1.20;;;;;;;;;;5061721;28;20041;-80
2023/07/12 14:07:21;;;;;;;2.13;1.60;;;;;;;;;;5059124;28;20052;-80
2023/07/12 14:09:51;;;;;;;2.17;1.23;;;;;;;;;;5061172;28;20049;-77
2023/07/12 14:12:38;;;;;;;2.78;1.20;;;;;;;;;;5059278;28;20041;-80
2023/07/12 14:15:05;;;;;;;1.35;1.00;;;;;;;;;;5058325;28;20075;-80
2023/07/12 14:17:38;;;;;;;1.92;1.23;;;;;;;;;;5057414;28;20324;-78
2023/07/12 14:20:05;;;;;;;3.85;1.35;;;;;;;;;;5058473;28;20304;-80
2023/07/12 14:22:32;;;;;;;2.67;1.40;;;;;;;;;;5059289;28;20067;-80
2023/07/12 14:24:59;;;;;;;2.08;1.33;;;;;;;;;;5058869;28;20056;-78
2023/07/12 14:27:29;;;;;;;1.95;1.45;;;;;;;;;;5058156;28;20136;-80
2023/07/12 14:29:57;;;;;;;1.92;1.20;;;;;;;;;;5059745;28;20282;-79
2023/07/12 14:32:30;;;;;;;2.80;1.40;;;;;;;;;;5058007;28;20073;-79
2023/07/12 14:34:58;;;;;;;2.58;1.38;;;;;;;;;;5058454;28;20064;-79
2023/07/12 14:37:24;;;;;;;1.98;1.20;;;;;;;;;;5057223;28;20095;-80
2023/07/12 14:39:51;;;;;;;2.15;1.27;;;;;;;;;;5078333;28;20055;-79
2023/07/12 14:42:28;;;;;;;5.15;1.60;;;;;;;;;;5084216;28;20140;-79
2023/07/12 14:44:55;;;;;;;2.75;1.30;;;;;;;;;;5078494;28;20197;-80
2023/07/12 14:47:22;;;;;;;2.53;1.40;;;;;;;;;;5080200;28;20104;-79
2023/07/12 14:49:50;;;;;;;2.13;1.35;;;;;;;;;;5078822;28;20048;-77
2023/07/12 14:52:17;;;;;;;5.68;1.40;;;;;;;;;;5079049;28;20142;-78
2023/07/12 14:54:43;;;;;;;1.77;1.20;;;;;;;;;;5079994;28;20104;-79
2023/07/12 14:57:14;;;;;;;4.90;1.60;;;;;;;;;;5081714;28;20059;-78